createdAt,value
2023-05-20T00:12:58.235Z,12.67
2023-05-20T00:28:01.051Z,12.65
2023-05-20T00:43:03.723Z,12.67
2023-05-20T00:58:06.309Z,12.63
2023-05-20T01:13:11.470Z,12.64
2023-05-20T01:28:18.305Z,12.61
2023-05-20T01:43:23.457Z,12.53
2023-05-20T01:58:26.086Z,12.48
2023-05-20T02:13:29.857Z,12.43
2023-05-20T02:28:32.525Z,12.38
2023-05-20T02:43:36.493Z,12.35
2023-05-20T02:58:39.483Z,12.33
2023-05-20T03:13:42.307Z,12.33
2023-05-20T03:28:47.636Z,12.32
2023-05-20T03:43:50.584Z,12.35
2023-05-20T03:58:53.666Z,12.37
2023-05-20T04:13:56.273Z,12.42
2023-05-20T04:28:59.144Z,12.46
2023-05-20T04:44:03.903Z,12.54
2023-05-20T04:59:06.520Z,12.58
2023-05-20T05:14:09.092Z,12.67
2023-05-20T05:29:11.972Z,12.80
2023-05-20T05:44:15.498Z,12.97
2023-05-20T05:59:20.061Z,13.07
2023-05-20T06:14:23.238Z,13.07
2023-05-20T06:29:26.055Z,13.01
2023-05-20T06:44:29.184Z,12.99
2023-05-20T06:59:31.841Z,13.14
2023-05-20T07:14:35.849Z,13.37
2023-05-20T07:29:38.618Z,13.48
2023-05-20T07:44:41.309Z,13.66
2023-05-20T07:59:44.864Z,13.82
2023-05-20T08:14:47.534Z,14.09
2023-05-20T08:29:50.474Z,14.30
2023-05-20T08:44:54.407Z,14.58
2023-05-20T08:59:57.865Z,15.31
2023-05-20T09:15:00.951Z,15.65
2023-05-20T09:30:07.460Z,16.49
2023-05-20T09:45:11.308Z,16.66
2023-05-20T10:00:17.329Z,16.67
2023-05-20T10:15:39.962Z,16.95
2023-05-20T10:30:51.012Z,16.81
2023-05-20T10:45:56.225Z,16.97
2023-05-20T11:00:59.150Z,16.83
2023-05-20T11:16:03.098Z,17.08
2023-05-20T11:31:06.696Z,17.31
2023-05-20T11:46:09.875Z,17.39
2023-05-20T12:01:21.818Z,17.46
2023-05-20T12:16:26.002Z,17.50
2023-05-20T12:31:29.002Z,17.84
2023-05-20T12:46:31.882Z,17.72
2023-05-20T13:01:34.872Z,17.88
2023-05-20T13:16:38.441Z,18.30
2023-05-20T13:31:41.146Z,18.62
2023-05-20T13:46:43.819Z,18.93
2023-05-20T14:01:47.068Z,18.98
2023-05-20T14:16:50.441Z,19.13
2023-05-20T14:31:53.282Z,19.19
2023-05-20T14:46:56.270Z,19.33
2023-05-20T15:01:59.515Z,19.41
2023-05-20T15:17:03.318Z,19.65
2023-05-20T15:32:08.431Z,19.57
2023-05-20T15:47:12.238Z,20.08
2023-05-20T16:02:15.174Z,20.35
2023-05-20T16:17:21.264Z,20.36
2023-05-20T16:32:24.131Z,20.42
2023-05-20T16:47:34.201Z,20.49
2023-05-20T17:02:38.455Z,20.44
2023-05-20T17:17:41.683Z,20.29
2023-05-20T17:32:44.482Z,20.07
2023-05-20T17:47:47.440Z,19.82
2023-05-20T18:02:50.814Z,19.45
2023-05-20T18:17:55.586Z,18.87
2023-05-20T18:32:58.634Z,18.25
2023-05-20T18:48:01.901Z,17.58
2023-05-20T19:03:04.766Z,16.97
2023-05-20T19:18:08.551Z,16.47
2023-05-20T19:33:11.804Z,16.02
2023-05-20T19:48:14.659Z,15.67
2023-05-20T20:03:18.356Z,15.57
2023-05-20T20:18:23.010Z,16.42
2023-05-20T20:33:28.001Z,16.77
2023-05-20T20:48:31.065Z,16.60
2023-05-20T21:03:34.261Z,16.29
2023-05-20T21:18:37.351Z,16.06
2023-05-20T21:33:40.558Z,15.84
2023-05-20T21:48:46.897Z,15.66
2023-05-20T22:03:52.054Z,15.67
2023-05-20T22:18:57.316Z,15.52
2023-05-20T22:34:00.595Z,15.45
2023-05-20T22:49:03.828Z,15.33
2023-05-20T23:04:06.440Z,15.26
2023-05-20T23:19:09.255Z,15.32
2023-05-20T23:34:12.241Z,15.49
2023-05-20T23:49:18.361Z,15.52
